sensor_id;sensor_type;location;lat;lon;timestamp;temperature;humidity
35381;DHT22;21486;51.916;8.378;2023-04-04T00:01:59;0.50;89.50
35381;DHT22;21486;51.916;8.378;2023-04-04T00:04:25;0.50;89.40
35381;DHT22;21486;51.916;8.378;2023-04-04T00:06:51;0.50;90.40
35381;DHT22;21486;51.916;8.378;2023-04-04T00:09:17;0.40;90.10
35381;DHT22;21486;51.916;8.378;2023-04-04T00:11:46;0.40;90.20
35381;DHT22;21486;51.916;8.378;2023-04-04T00:14:11;0.40;90.00
35381;DHT22;21486;51.916;8.378;2023-04-04T00:16:37;0.40;90.30
35381;DHT22;21486;51.916;8.378;2023-04-04T00:19:03;0.40;90.80
35381;DHT22;21486;51.916;8.378;2023-04-04T00:21:28;0.30;90.80
35381;DHT22;21486;51.916;8.378;2023-04-04T00:23:55;0.30;91.10
35381;DHT22;21486;51.916;8.378;2023-04-04T00:26:21;0.20;91.10
35381;DHT22;21486;51.916;8.378;2023-04-04T00:28:47;0.20;91.40
35381;DHT22;21486;51.916;8.378;2023-04-04T00:33:11;0.20;91.50
35381;DHT22;21486;51.916;8.378;2023-04-04T00:35:36;0.20;91.90
35381;DHT22;21486;51.916;8.378;2023-04-04T00:38:02;0.20;92.30
35381;DHT22;21486;51.916;8.378;2023-04-04T00:40:28;0.20;92.10
35381;DHT22;21486;51.916;8.378;2023-04-04T00:42:54;0.20;92.00
35381;DHT22;21486;51.916;8.378;2023-04-04T00:45:19;0.20;92.00
35381;DHT22;21486;51.916;8.378;2023-04-04T00:47:46;0.30;91.60
35381;DHT22;21486;51.916;8.378;2023-04-04T00:50:12;0.30;91.70
35381;DHT22;21486;51.916;8.378;2023-04-04T00:52:37;0.20;91.80
35381;DHT22;21486;51.916;8.378;2023-04-04T00:55:03;0.30;91.90
35381;DHT22;21486;51.916;8.378;2023-04-04T00:57:29;0.20;91.70
35381;DHT22;21486;51.916;8.378;2023-04-04T00:59:57;0.20;91.40
35381;DHT22;21486;51.916;8.378;2023-04-04T01:02:24;0.20;91.20
35381;DHT22;21486;51.916;8.378;2023-04-04T01:04:50;0.20;91.30
35381;DHT22;21486;51.916;8.378;2023-04-04T01:07:19;0.20;91.10
35381;DHT22;21486;51.916;8.378;2023-04-04T01:09:45;0.20;90.80
35381;DHT22;21486;51.916;8.378;2023-04-04T01:12:11;0.20;91.10
35381;DHT22;21486;51.916;8.378;2023-04-04T01:14:37;0.20;90.90
35381;DHT22;21486;51.916;8.378;2023-04-04T01:17:02;0.20;91.00
35381;DHT22;21486;51.916;8.378;2023-04-04T01:19:32;0.20;90.80
35381;DHT22;21486;51.916;8.378;2023-04-04T01:22:03;0.20;91.50
35381;DHT22;21486;51.916;8.378;2023-04-04T01:24:32;0.10;91.90
35381;DHT22;21486;51.916;8.378;2023-04-04T01:26:58;0.10;91.50
35381;DHT22;21486;51.916;8.378;2023-04-04T01:29:25;0.10;91.40
35381;DHT22;21486;51.916;8.378;2023-04-04T01:31:57;0.10;91.70
35381;DHT22;21486;51.916;8.378;2023-04-04T01:34:31;0.10;91.60
35381;DHT22;21486;51.916;8.378;2023-04-04T01:37:24;0.10;92.00
35381;DHT22;21486;51.916;8.378;2023-04-04T01:39:57;0.10;92.50
35381;DHT22;21486;51.916;8.378;2023-04-04T01:42:24;0.00;92.60
35381;DHT22;21486;51.916;8.378;2023-04-04T01:44:54;0.00;92.60
35381;DHT22;21486;51.916;8.378;2023-04-04T01:47:20;0.00;92.90
35381;DHT22;21486;51.916;8.378;2023-04-04T01:49:46;0.00;92.40
35381;DHT22;21486;51.916;8.378;2023-04-04T01:52:12;0.00;92.90
35381;DHT22;21486;51.916;8.378;2023-04-04T01:54:37;0.00;92.50
35381;DHT22;21486;51.916;8.378;2023-04-04T01:57:03;0.00;92.30
35381;DHT22;21486;51.916;8.378;2023-04-04T01:59:28;-0.10;92.40
35381;DHT22;21486;51.916;8.378;2023-04-04T02:01:54;0.00;92.40
35381;DHT22;21486;51.916;8.378;2023-04-04T02:04:20;0.00;92.10
35381;DHT22;21486;51.916;8.378;2023-04-04T02:06:46;0.00;91.80
35381;DHT22;21486;51.916;8.378;2023-04-04T02:09:12;0.00;91.60
35381;DHT22;21486;51.916;8.378;2023-04-04T02:11:38;0.10;91.10
35381;DHT22;21486;51.916;8.378;2023-04-04T02:14:03;0.00;91.50
35381;DHT22;21486;51.916;8.378;2023-04-04T02:16:29;0.10;91.60
35381;DHT22;21486;51.916;8.378;2023-04-04T02:18:55;0.00;91.80
35381;DHT22;21486;51.916;8.378;2023-04-04T02:21:21;0.00;92.40
35381;DHT22;21486;51.916;8.378;2023-04-04T02:23:47;-0.10;92.40
35381;DHT22;21486;51.916;8.378;2023-04-04T02:26:12;-0.10;92.80
35381;DHT22;21486;51.916;8.378;2023-04-04T02:28:38;-0.10;92.60
35381;DHT22;21486;51.916;8.378;2023-04-04T02:31:04;-0.10;92.60
35381;DHT22;21486;51.916;8.378;2023-04-04T02:33:29;-0.10;92.40
35381;DHT22;21486;51.916;8.378;2023-04-04T02:35:59;-0.10;92.60
35381;DHT22;21486;51.916;8.378;2023-04-04T02:38:25;-0.20;92.90
35381;DHT22;21486;51.916;8.378;2023-04-04T02:40:51;-0.20;92.60
35381;DHT22;21486;51.916;8.378;2023-04-04T02:43:16;-0.20;92.40
35381;DHT22;21486;51.916;8.378;2023-04-04T02:45:42;-0.20;92.10
35381;DHT22;21486;51.916;8.378;2023-04-04T02:48:08;-0.20;91.70
35381;DHT22;21486;51.916;8.378;2023-04-04T02:50:35;-0.20;91.50
35381;DHT22;21486;51.916;8.378;2023-04-04T02:53:01;-0.20;91.50
35381;DHT22;21486;51.916;8.378;2023-04-04T02:55:27;-0.20;91.90
35381;DHT22;21486;51.916;8.378;2023-04-04T02:57:52;-0.20;92.30
35381;DHT22;21486;51.916;8.378;2023-04-04T03:00:18;-0.30;92.10
35381;DHT22;21486;51.916;8.378;2023-04-04T03:02:44;-0.30;92.20
35381;DHT22;21486;51.916;8.378;2023-04-04T03:05:10;-0.40;92.90
35381;DHT22;21486;51.916;8.378;2023-04-04T03:07:36;-0.40;92.80
35381;DHT22;21486;51.916;8.378;2023-04-04T03:10:03;-0.40;92.90
35381;DHT22;21486;51.916;8.378;2023-04-04T03:12:28;-0.40;92.70
35381;DHT22;21486;51.916;8.378;2023-04-04T03:14:54;-0.40;92.80
35381;DHT22;21486;51.916;8.378;2023-04-04T03:17:19;-0.30;92.70
35381;DHT22;21486;51.916;8.378;2023-04-04T03:19:45;-0.40;92.80
35381;DHT22;21486;51.916;8.378;2023-04-04T03:22:11;-0.30;92.70
35381;DHT22;21486;51.916;8.378;2023-04-04T03:24:37;-0.30;92.60
35381;DHT22;21486;51.916;8.378;2023-04-04T03:27:02;-0.40;92.60
35381;DHT22;21486;51.916;8.378;2023-04-04T03:29:28;-0.40;92.60
35381;DHT22;21486;51.916;8.378;2023-04-04T03:31:54;-0.50;92.50
35381;DHT22;21486;51.916;8.378;2023-04-04T03:34:19;-0.50;92.90
35381;DHT22;21486;51.916;8.378;2023-04-04T03:36:45;-0.50;92.90
35381;DHT22;21486;51.916;8.378;2023-04-04T03:39:11;-0.60;93.00
35381;DHT22;21486;51.916;8.378;2023-04-04T03:41:37;-0.60;92.90
35381;DHT22;21486;51.916;8.378;2023-04-04T03:44:03;-0.70;93.20
35381;DHT22;21486;51.916;8.378;2023-04-04T03:46:29;-0.70;93.40
35381;DHT22;21486;51.916;8.378;2023-04-04T03:48:54;-0.60;93.50
35381;DHT22;21486;51.916;8.378;2023-04-04T03:51:25;-0.70;93.30
35381;DHT22;21486;51.916;8.378;2023-04-04T03:53:51;-0.70;93.30
35381;DHT22;21486;51.916;8.378;2023-04-04T03:56:17;-0.70;93.30
35381;DHT22;21486;51.916;8.378;2023-04-04T03:58:43;-0.60;93.20
35381;DHT22;21486;51.916;8.378;2023-04-04T04:01:08;-0.60;93.10
35381;DHT22;21486;51.916;8.378;2023-04-04T04:03:34;-0.60;92.90
35381;DHT22;21486;51.916;8.378;2023-04-04T04:06:00;-0.60;92.70
35381;DHT22;21486;51.916;8.378;2023-04-04T04:08:26;-0.70;93.00
35381;DHT22;21486;51.916;8.378;2023-04-04T04:10:52;-0.70;92.80
35381;DHT22;21486;51.916;8.378;2023-04-04T04:13:19;-0.70;93.20
35381;DHT22;21486;51.916;8.378;2023-04-04T04:15:44;-0.70;93.10
35381;DHT22;21486;51.916;8.378;2023-04-04T04:18:10;-0.70;93.10
35381;DHT22;21486;51.916;8.378;2023-04-04T04:20:36;-0.70;93.40
35381;DHT22;21486;51.916;8.378;2023-04-04T04:23:01;-0.70;93.40
35381;DHT22;21486;51.916;8.378;2023-04-04T04:25:27;-0.70;93.90
35381;DHT22;21486;51.916;8.378;2023-04-04T04:27:56;-0.70;93.90
35381;DHT22;21486;51.916;8.378;2023-04-04T04:30:22;-0.70;93.90
35381;DHT22;21486;51.916;8.378;2023-04-04T04:32:48;-0.80;94.20
35381;DHT22;21486;51.916;8.378;2023-04-04T04:35:15;-0.80;93.90
35381;DHT22;21486;51.916;8.378;2023-04-04T04:37:41;-0.70;93.90
35381;DHT22;21486;51.916;8.378;2023-04-04T04:40:07;-0.70;94.20
35381;DHT22;21486;51.916;8.378;2023-04-04T04:42:33;-0.80;94.30
35381;DHT22;21486;51.916;8.378;2023-04-04T04:44:58;-0.80;94.40
35381;DHT22;21486;51.916;8.378;2023-04-04T04:47:24;-0.80;94.20
35381;DHT22;21486;51.916;8.378;2023-04-04T04:49:50;-0.80;94.40
35381;DHT22;21486;51.916;8.378;2023-04-04T04:52:15;-0.80;94.40
35381;DHT22;21486;51.916;8.378;2023-04-04T04:54:41;-0.80;94.20
35381;DHT22;21486;51.916;8.378;2023-04-04T04:57:08;-0.90;94.50
35381;DHT22;21486;51.916;8.378;2023-04-04T04:59:33;-0.90;94.60
35381;DHT22;21486;51.916;8.378;2023-04-04T05:01:59;-0.90;94.90
35381;DHT22;21486;51.916;8.378;2023-04-04T05:04:25;-1.00;95.20
35381;DHT22;21486;51.916;8.378;2023-04-04T05:06:54;-1.00;95.40
35381;DHT22;21486;51.916;8.378;2023-04-04T05:09:20;-1.00;95.40
35381;DHT22;21486;51.916;8.378;2023-04-04T05:11:45;-0.90;95.10
35381;DHT22;21486;51.916;8.378;2023-04-04T05:14:12;-0.90;94.90
35381;DHT22;21486;51.916;8.378;2023-04-04T05:16:37;-0.90;94.70
35381;DHT22;21486;51.916;8.378;2023-04-04T05:19:03;-0.80;94.60
35381;DHT22;21486;51.916;8.378;2023-04-04T05:21:29;-0.90;94.30
35381;DHT22;21486;51.916;8.378;2023-04-04T05:23:55;-0.90;94.60
35381;DHT22;21486;51.916;8.378;2023-04-04T05:26:22;-0.70;94.50
35381;DHT22;21486;51.916;8.378;2023-04-04T05:28:49;-0.70;94.20
35381;DHT22;21486;51.916;8.378;2023-04-04T05:31:14;-0.60;94.40
35381;DHT22;21486;51.916;8.378;2023-04-04T05:33:40;-0.60;94.40
35381;DHT22;21486;51.916;8.378;2023-04-04T05:36:06;-0.50;94.20
35381;DHT22;21486;51.916;8.378;2023-04-04T05:38:32;-0.40;94.20
35381;DHT22;21486;51.916;8.378;2023-04-04T05:40:57;-0.30;94.20
35381;DHT22;21486;51.916;8.378;2023-04-04T05:43:23;-0.20;94.00
35381;DHT22;21486;51.916;8.378;2023-04-04T05:45:48;-0.10;94.10
35381;DHT22;21486;51.916;8.378;2023-04-04T05:48:14;0.00;93.80
35381;DHT22;21486;51.916;8.378;2023-04-04T05:50:39;0.10;93.60
35381;DHT22;21486;51.916;8.378;2023-04-04T05:53:08;0.20;93.20
35381;DHT22;21486;51.916;8.378;2023-04-04T05:55:34;0.30;93.00
35381;DHT22;21486;51.916;8.378;2023-04-04T05:58:00;0.50;92.80
35381;DHT22;21486;51.916;8.378;2023-04-04T06:00:25;0.60;92.40
35381;DHT22;21486;51.916;8.378;2023-04-04T06:02:51;0.70;92.00
35381;DHT22;21486;51.916;8.378;2023-04-04T06:05:18;0.80;92.00
35381;DHT22;21486;51.916;8.378;2023-04-04T06:07:43;0.90;91.70
35381;DHT22;21486;51.916;8.378;2023-04-04T06:10:09;0.80;91.60
35381;DHT22;21486;51.916;8.378;2023-04-04T06:12:35;0.80;91.50
35381;DHT22;21486;51.916;8.378;2023-04-04T06:15:00;0.90;91.60
35381;DHT22;21486;51.916;8.378;2023-04-04T06:17:26;0.90;91.70
35381;DHT22;21486;51.916;8.378;2023-04-04T06:19:51;1.00;91.50
35381;DHT22;21486;51.916;8.378;2023-04-04T06:22:19;1.10;91.30
35381;DHT22;21486;51.916;8.378;2023-04-04T06:24:45;1.00;91.30
35381;DHT22;21486;51.916;8.378;2023-04-04T06:27:11;1.00;91.20
35381;DHT22;21486;51.916;8.378;2023-04-04T06:29:36;1.00;91.10
35381;DHT22;21486;51.916;8.378;2023-04-04T06:32:02;1.10;91.00
35381;DHT22;21486;51.916;8.378;2023-04-04T06:34:29;1.10;90.90
35381;DHT22;21486;51.916;8.378;2023-04-04T06:36:55;1.20;90.70
35381;DHT22;21486;51.916;8.378;2023-04-04T06:39:21;1.20;90.60
35381;DHT22;21486;51.916;8.378;2023-04-04T06:41:46;1.30;90.40
35381;DHT22;21486;51.916;8.378;2023-04-04T06:44:12;1.30;90.00
35381;DHT22;21486;51.916;8.378;2023-04-04T06:46:38;1.40;89.00
35381;DHT22;21486;51.916;8.378;2023-04-04T06:49:04;1.50;88.60
35381;DHT22;21486;51.916;8.378;2023-04-04T06:51:32;1.60;87.80
35381;DHT22;21486;51.916;8.378;2023-04-04T06:53:58;1.70;86.50
35381;DHT22;21486;51.916;8.378;2023-04-04T06:56:24;1.80;85.40
35381;DHT22;21486;51.916;8.378;2023-04-04T06:58:51;1.90;85.60
35381;DHT22;21486;51.916;8.378;2023-04-04T07:01:17;1.90;85.40
35381;DHT22;21486;51.916;8.378;2023-04-04T07:03:42;1.90;79.90
35381;DHT22;21486;51.916;8.378;2023-04-04T07:06:11;2.00;78.60
35381;DHT22;21486;51.916;8.378;2023-04-04T07:08:37;2.10;77.30
35381;DHT22;21486;51.916;8.378;2023-04-04T07:11:03;2.20;76.40
35381;DHT22;21486;51.916;8.378;2023-04-04T07:13:28;2.30;75.10
35381;DHT22;21486;51.916;8.378;2023-04-04T07:15:54;2.30;72.50
35381;DHT22;21486;51.916;8.378;2023-04-04T07:18:20;2.40;72.00
35381;DHT22;21486;51.916;8.378;2023-04-04T07:20:46;2.60;72.00
35381;DHT22;21486;51.916;8.378;2023-04-04T07:23:12;2.60;69.40
35381;DHT22;21486;51.916;8.378;2023-04-04T07:25:38;2.60;68.80
35381;DHT22;21486;51.916;8.378;2023-04-04T07:28:03;2.70;68.10
35381;DHT22;21486;51.916;8.378;2023-04-04T07:30:29;2.80;67.50
35381;DHT22;21486;51.916;8.378;2023-04-04T07:33:00;3.00;66.80
35381;DHT22;21486;51.916;8.378;2023-04-04T07:35:26;3.10;67.20
35381;DHT22;21486;51.916;8.378;2023-04-04T07:37:52;3.20;66.10
35381;DHT22;21486;51.916;8.378;2023-04-04T07:40:18;3.40;64.80
35381;DHT22;21486;51.916;8.378;2023-04-04T07:42:44;3.30;62.20
35381;DHT22;21486;51.916;8.378;2023-04-04T07:45:13;3.30;61.80
35381;DHT22;21486;51.916;8.378;2023-04-04T07:47:43;3.40;62.20
35381;DHT22;21486;51.916;8.378;2023-04-04T07:50:09;3.30;61.90
35381;DHT22;21486;51.916;8.378;2023-04-04T07:52:35;3.40;63.30
35381;DHT22;21486;51.916;8.378;2023-04-04T07:55:01;3.50;61.00
35381;DHT22;21486;51.916;8.378;2023-04-04T07:57:28;3.60;60.50
35381;DHT22;21486;51.916;8.378;2023-04-04T07:59:53;3.60;59.70
35381;DHT22;21486;51.916;8.378;2023-04-04T08:02:19;3.60;60.20
35381;DHT22;21486;51.916;8.378;2023-04-04T08:04:44;3.70;61.30
35381;DHT22;21486;51.916;8.378;2023-04-04T08:07:10;3.80;60.90
35381;DHT22;21486;51.916;8.378;2023-04-04T08:09:36;3.80;60.00
35381;DHT22;21486;51.916;8.378;2023-04-04T08:12:02;3.80;59.40
35381;DHT22;21486;51.916;8.378;2023-04-04T08:14:28;4.10;59.50
35381;DHT22;21486;51.916;8.378;2023-04-04T08:16:53;4.30;58.50
35381;DHT22;21486;51.916;8.378;2023-04-04T08:19:19;4.70;57.90
35381;DHT22;21486;51.916;8.378;2023-04-04T08:21:45;4.70;58.30
35381;DHT22;21486;51.916;8.378;2023-04-04T08:24:11;4.90;57.10
35381;DHT22;21486;51.916;8.378;2023-04-04T08:26:37;5.10;54.60
35381;DHT22;21486;51.916;8.378;2023-04-04T08:29:03;5.20;55.80
35381;DHT22;21486;51.916;8.378;2023-04-04T08:31:28;5.80;54.30
35381;DHT22;21486;51.916;8.378;2023-04-04T08:33:54;6.10;53.90
35381;DHT22;21486;51.916;8.378;2023-04-04T08:36:20;6.50;53.10
35381;DHT22;21486;51.916;8.378;2023-04-04T08:38:46;7.20;53.30
35381;DHT22;21486;51.916;8.378;2023-04-04T08:41:12;8.50;50.40
35381;DHT22;21486;51.916;8.378;2023-04-04T08:43:42;8.90;47.10
35381;DHT22;21486;51.916;8.378;2023-04-04T08:46:10;9.30;47.00
35381;DHT22;21486;51.916;8.378;2023-04-04T08:48:38;9.90;45.50
35381;DHT22;21486;51.916;8.378;2023-04-04T08:51:07;9.70;46.30
35381;DHT22;21486;51.916;8.378;2023-04-04T08:53:35;10.50;43.30
35381;DHT22;21486;51.916;8.378;2023-04-04T08:56:01;10.40;43.50
35381;DHT22;21486;51.916;8.378;2023-04-04T08:58:27;10.70;44.10
35381;DHT22;21486;51.916;8.378;2023-04-04T09:00:53;10.20;43.40
35381;DHT22;21486;51.916;8.378;2023-04-04T09:03:23;10.30;44.70
35381;DHT22;21486;51.916;8.378;2023-04-04T09:05:51;10.40;44.70
35381;DHT22;21486;51.916;8.378;2023-04-04T09:08:18;10.40;44.10
35381;DHT22;21486;51.916;8.378;2023-04-04T09:10:45;9.90;42.90
35381;DHT22;21486;51.916;8.378;2023-04-04T09:13:11;9.50;44.50
35381;DHT22;21486;51.916;8.378;2023-04-04T09:15:37;10.70;43.70
35381;DHT22;21486;51.916;8.378;2023-04-04T09:18:05;11.10;41.80
35381;DHT22;21486;51.916;8.378;2023-04-04T09:20:40;10.50;41.90
35381;DHT22;21486;51.916;8.378;2023-04-04T09:23:09;10.30;43.10
35381;DHT22;21486;51.916;8.378;2023-04-04T09:25:36;9.50;44.30
35381;DHT22;21486;51.916;8.378;2023-04-04T09:28:05;8.90;45.80
35381;DHT22;21486;51.916;8.378;2023-04-04T09:30:32;9.80;44.70
35381;DHT22;21486;51.916;8.378;2023-04-04T09:33:03;11.00;44.90
35381;DHT22;21486;51.916;8.378;2023-04-04T09:35:35;12.00;40.70
35381;DHT22;21486;51.916;8.378;2023-04-04T09:38:02;12.50;40.90
35381;DHT22;21486;51.916;8.378;2023-04-04T09:40:28;12.90;41.00
35381;DHT22;21486;51.916;8.378;2023-04-04T09:42:58;13.20;37.90
35381;DHT22;21486;51.916;8.378;2023-04-04T09:45:24;13.40;37.60
35381;DHT22;21486;51.916;8.378;2023-04-04T09:47:50;13.90;36.60
35381;DHT22;21486;51.916;8.378;2023-04-04T09:50:23;13.60;36.70
35381;DHT22;21486;51.916;8.378;2023-04-04T09:52:50;13.90;36.20
35381;DHT22;21486;51.916;8.378;2023-04-04T09:55:16;14.30;36.00
35381;DHT22;21486;51.916;8.378;2023-04-04T09:57:42;14.30;36.10
35381;DHT22;21486;51.916;8.378;2023-04-04T10:00:11;13.50;36.40
35381;DHT22;21486;51.916;8.378;2023-04-04T10:02:39;12.90;37.20
35381;DHT22;21486;51.916;8.378;2023-04-04T10:05:10;12.40;38.30
35381;DHT22;21486;51.916;8.378;2023-04-04T10:07:38;13.40;37.30
35381;DHT22;21486;51.916;8.378;2023-04-04T10:10:05;14.10;35.60
35381;DHT22;21486;51.916;8.378;2023-04-04T10:12:31;14.10;35.00
35381;DHT22;21486;51.916;8.378;2023-04-04T10:15:00;14.60;35.00
35381;DHT22;21486;51.916;8.378;2023-04-04T10:17:30;15.30;34.60
35381;DHT22;21486;51.916;8.378;2023-04-04T10:19:59;15.00;35.20
35381;DHT22;21486;51.916;8.378;2023-04-04T10:22:28;14.80;35.30
35381;DHT22;21486;51.916;8.378;2023-04-04T10:24:54;14.80;35.00
35381;DHT22;21486;51.916;8.378;2023-04-04T10:27:20;15.10;34.40
35381;DHT22;21486;51.916;8.378;2023-04-04T10:29:46;15.00;33.50
35381;DHT22;21486;51.916;8.378;2023-04-04T10:32:18;15.30;33.60
35381;DHT22;21486;51.916;8.378;2023-04-04T10:34:54;15.30;33.60
35381;DHT22;21486;51.916;8.378;2023-04-04T10:37:25;15.30;33.80
35381;DHT22;21486;51.916;8.378;2023-04-04T10:40:03;15.20;33.00
35381;DHT22;21486;51.916;8.378;2023-04-04T10:42:33;14.70;33.20
35381;DHT22;21486;51.916;8.378;2023-04-04T10:45:01;14.10;34.00
35381;DHT22;21486;51.916;8.378;2023-04-04T10:47:28;12.40;36.20
35381;DHT22;21486;51.916;8.378;2023-04-04T10:49:55;13.10;36.10
35381;DHT22;21486;51.916;8.378;2023-04-04T10:52:22;13.30;36.80
35381;DHT22;21486;51.916;8.378;2023-04-04T10:54:50;14.10;35.30
35381;DHT22;21486;51.916;8.378;2023-04-04T10:57:17;14.20;34.50
35381;DHT22;21486;51.916;8.378;2023-04-04T11:00:00;14.00;34.40
35381;DHT22;21486;51.916;8.378;2023-04-04T11:03:04;13.70;35.00
35381;DHT22;21486;51.916;8.378;2023-04-04T11:05:34;14.20;35.30
35381;DHT22;21486;51.916;8.378;2023-04-04T11:08:15;14.30;34.50
35381;DHT22;21486;51.916;8.378;2023-04-04T11:10:43;14.20;36.40
35381;DHT22;21486;51.916;8.378;2023-04-04T11:13:20;14.10;35.80
35381;DHT22;21486;51.916;8.378;2023-04-04T11:16:05;14.10;36.30
35381;DHT22;21486;51.916;8.378;2023-04-04T11:21:05;12.70;35.80
35381;DHT22;21486;51.916;8.378;2023-04-04T11:28:54;13.70;35.10
35381;DHT22;21486;51.916;8.378;2023-04-04T11:31:27;14.60;35.10
35381;DHT22;21486;51.916;8.378;2023-04-04T11:39:24;13.90;35.20
35381;DHT22;21486;51.916;8.378;2023-04-04T11:44:20;13.00;36.80
35381;DHT22;21486;51.916;8.378;2023-04-04T11:46:59;13.20;36.90
35381;DHT22;21486;51.916;8.378;2023-04-04T11:49:26;13.90;35.80
35381;DHT22;21486;51.916;8.378;2023-04-04T11:51:54;14.00;35.80
35381;DHT22;21486;51.916;8.378;2023-04-04T11:54:19;14.70;36.40
35381;DHT22;21486;51.916;8.378;2023-04-04T11:56:45;15.60;35.30
35381;DHT22;21486;51.916;8.378;2023-04-04T11:59:11;15.00;33.80
35381;DHT22;21486;51.916;8.378;2023-04-04T12:01:38;14.40;35.00
35381;DHT22;21486;51.916;8.378;2023-04-04T12:04:04;13.80;35.40
35381;DHT22;21486;51.916;8.378;2023-04-04T12:06:30;13.40;37.00
35381;DHT22;21486;51.916;8.378;2023-04-04T12:08:57;13.20;39.00
35381;DHT22;21486;51.916;8.378;2023-04-04T12:11:23;13.70;36.30
35381;DHT22;21486;51.916;8.378;2023-04-04T12:13:50;13.80;37.20
35381;DHT22;21486;51.916;8.378;2023-04-04T12:16:19;13.80;36.00
35381;DHT22;21486;51.916;8.378;2023-04-04T12:18:44;12.90;36.60
35381;DHT22;21486;51.916;8.378;2023-04-04T12:21:10;13.00;37.10
35381;DHT22;21486;51.916;8.378;2023-04-04T12:23:36;13.40;36.90
35381;DHT22;21486;51.916;8.378;2023-04-04T12:26:02;13.70;37.20
35381;DHT22;21486;51.916;8.378;2023-04-04T12:28:30;13.90;36.30
35381;DHT22;21486;51.916;8.378;2023-04-04T12:30:59;13.90;36.10
35381;DHT22;21486;51.916;8.378;2023-04-04T12:33:30;14.10;36.40
35381;DHT22;21486;51.916;8.378;2023-04-04T12:35:58;14.20;36.20
35381;DHT22;21486;51.916;8.378;2023-04-04T12:38:24;14.70;35.10
35381;DHT22;21486;51.916;8.378;2023-04-04T12:40:51;15.00;34.60
35381;DHT22;21486;51.916;8.378;2023-04-04T12:43:17;14.90;34.70
35381;DHT22;21486;51.916;8.378;2023-04-04T12:45:43;13.90;35.50
35381;DHT22;21486;51.916;8.378;2023-04-04T12:48:11;13.70;37.60
35381;DHT22;21486;51.916;8.378;2023-04-04T12:50:52;13.90;37.10
35381;DHT22;21486;51.916;8.378;2023-04-04T12:53:19;14.00;36.60
35381;DHT22;21486;51.916;8.378;2023-04-04T12:55:46;13.90;36.60
35381;DHT22;21486;51.916;8.378;2023-04-04T12:58:15;14.30;35.30
35381;DHT22;21486;51.916;8.378;2023-04-04T13:00:41;14.30;36.20
35381;DHT22;21486;51.916;8.378;2023-04-04T13:03:08;13.70;37.10
35381;DHT22;21486;51.916;8.378;2023-04-04T13:05:34;13.40;37.30
35381;DHT22;21486;51.916;8.378;2023-04-04T13:08:05;13.60;37.60
35381;DHT22;21486;51.916;8.378;2023-04-04T13:10:54;13.50;36.80
35381;DHT22;21486;51.916;8.378;2023-04-04T13:15:59;11.70;38.40
35381;DHT22;21486;51.916;8.378;2023-04-04T13:18:25;10.90;39.50
35381;DHT22;21486;51.916;8.378;2023-04-04T13:20:56;10.80;42.10
35381;DHT22;21486;51.916;8.378;2023-04-04T13:23:22;11.30;40.70
35381;DHT22;21486;51.916;8.378;2023-04-04T13:25:47;11.30;39.60
35381;DHT22;21486;51.916;8.378;2023-04-04T13:28:13;11.40;39.10
35381;DHT22;21486;51.916;8.378;2023-04-04T13:30:39;11.30;39.00
35381;DHT22;21486;51.916;8.378;2023-04-04T13:33:14;11.40;40.10
35381;DHT22;21486;51.916;8.378;2023-04-04T13:35:43;11.10;39.50
35381;DHT22;21486;51.916;8.378;2023-04-04T13:38:10;10.70;39.10
35381;DHT22;21486;51.916;8.378;2023-04-04T13:40:36;10.40;40.10
35381;DHT22;21486;51.916;8.378;2023-04-04T13:43:02;10.50;41.60
35381;DHT22;21486;51.916;8.378;2023-04-04T13:45:27;10.40;40.40
35381;DHT22;21486;51.916;8.378;2023-04-04T13:47:53;10.30;41.00
35381;DHT22;21486;51.916;8.378;2023-04-04T13:50:18;10.10;40.20
35381;DHT22;21486;51.916;8.378;2023-04-04T13:52:44;10.00;42.10
35381;DHT22;21486;51.916;8.378;2023-04-04T13:55:10;9.90;42.20
35381;DHT22;21486;51.916;8.378;2023-04-04T13:57:35;9.70;42.70
35381;DHT22;21486;51.916;8.378;2023-04-04T14:00:02;9.50;43.20
35381;DHT22;21486;51.916;8.378;2023-04-04T14:02:29;9.40;43.90
35381;DHT22;21486;51.916;8.378;2023-04-04T14:04:54;9.60;43.20
35381;DHT22;21486;51.916;8.378;2023-04-04T14:07:20;9.90;43.60
35381;DHT22;21486;51.916;8.378;2023-04-04T14:09:45;9.90;43.50
35381;DHT22;21486;51.916;8.378;2023-04-04T14:12:11;10.00;44.20
35381;DHT22;21486;51.916;8.378;2023-04-04T14:14:36;10.00;43.30
35381;DHT22;21486;51.916;8.378;2023-04-04T14:17:02;9.90;43.00
35381;DHT22;21486;51.916;8.378;2023-04-04T14:19:27;9.80;42.20
35381;DHT22;21486;51.916;8.378;2023-04-04T14:21:53;9.90;41.80
35381;DHT22;21486;51.916;8.378;2023-04-04T14:24:18;9.90;41.20
35381;DHT22;21486;51.916;8.378;2023-04-04T14:26:44;9.80;42.90
35381;DHT22;21486;51.916;8.378;2023-04-04T14:29:09;10.10;43.20
35381;DHT22;21486;51.916;8.378;2023-04-04T14:31:35;10.10;41.70
35381;DHT22;21486;51.916;8.378;2023-04-04T14:34:01;9.80;44.10
35381;DHT22;21486;51.916;8.378;2023-04-04T14:36:27;9.80;43.50
35381;DHT22;21486;51.916;8.378;2023-04-04T14:38:52;9.70;43.20
35381;DHT22;21486;51.916;8.378;2023-04-04T14:41:19;9.60;43.30
35381;DHT22;21486;51.916;8.378;2023-04-04T14:43:44;9.60;43.10
35381;DHT22;21486;51.916;8.378;2023-04-04T14:46:10;9.70;45.80
35381;DHT22;21486;51.916;8.378;2023-04-04T14:48:36;9.80;45.70
35381;DHT22;21486;51.916;8.378;2023-04-04T14:51:01;9.90;44.60
35381;DHT22;21486;51.916;8.378;2023-04-04T14:53:27;10.10;44.70
35381;DHT22;21486;51.916;8.378;2023-04-04T14:55:52;10.20;42.90
35381;DHT22;21486;51.916;8.378;2023-04-04T14:58:18;10.10;43.90
35381;DHT22;21486;51.916;8.378;2023-04-04T15:00:44;10.00;43.20
35381;DHT22;21486;51.916;8.378;2023-04-04T15:03:13;10.10;44.60
35381;DHT22;21486;51.916;8.378;2023-04-04T15:05:39;10.10;44.20
35381;DHT22;21486;51.916;8.378;2023-04-04T15:08:05;10.10;45.20
35381;DHT22;21486;51.916;8.378;2023-04-04T15:10:30;10.10;45.30
35381;DHT22;21486;51.916;8.378;2023-04-04T15:12:56;10.20;44.50
35381;DHT22;21486;51.916;8.378;2023-04-04T15:15:21;10.20;43.20
35381;DHT22;21486;51.916;8.378;2023-04-04T15:17:47;10.10;43.10
35381;DHT22;21486;51.916;8.378;2023-04-04T15:20:12;9.90;43.10
35381;DHT22;21486;51.916;8.378;2023-04-04T15:22:38;9.90;45.80
35381;DHT22;21486;51.916;8.378;2023-04-04T15:25:07;10.20;45.10
35381;DHT22;21486;51.916;8.378;2023-04-04T15:27:33;10.20;44.00
35381;DHT22;21486;51.916;8.378;2023-04-04T15:29:58;10.30;43.30
35381;DHT22;21486;51.916;8.378;2023-04-04T15:32:24;10.10;42.20
35381;DHT22;21486;51.916;8.378;2023-04-04T15:34:50;10.20;42.20
35381;DHT22;21486;51.916;8.378;2023-04-04T15:37:15;10.00;42.10
35381;DHT22;21486;51.916;8.378;2023-04-04T15:39:41;10.00;41.70
35381;DHT22;21486;51.916;8.378;2023-04-04T15:42:07;9.90;43.20
35381;DHT22;21486;51.916;8.378;2023-04-04T15:44:34;10.00;43.10
35381;DHT22;21486;51.916;8.378;2023-04-04T15:46:59;10.00;42.60
35381;DHT22;21486;51.916;8.378;2023-04-04T15:49:25;10.00;43.10
35381;DHT22;21486;51.916;8.378;2023-04-04T15:51:50;10.00;43.30
35381;DHT22;21486;51.916;8.378;2023-04-04T15:54:16;10.00;42.20
35381;DHT22;21486;51.916;8.378;2023-04-04T15:56:41;9.90;43.10